sensor_id;sensor_type;location;lat;lon;timestamp;P1;durP1;ratioP1;P2;durP2;ratioP2
60488;SDS011;46331;49.252;8.904;2024-02-14T00:00:07;6.70;;;2.27;;
60488;SDS011;46331;49.252;8.904;2024-02-14T00:00:54;7.32;;;2.22;;
60488;SDS011;46331;49.252;8.904;2024-02-14T00:01:35;9.23;;;2.30;;
60488;SDS011;46331;49.252;8.904;2024-02-14T00:02:17;6.97;;;2.30;;
60488;SDS011;46331;49.252;8.904;2024-02-14T00:02:57;7.15;;;2.55;;
60488;SDS011;46331;49.252;8.904;2024-02-14T00:03:38;5.15;;;2.00;;
60488;SDS011;46331;49.252;8.904;2024-02-14T00:04:19;12.00;;;2.33;;
60488;SDS011;46331;49.252;8.904;2024-02-14T00:05:00;6.43;;;1.88;;
60488;SDS011;46331;49.252;8.904;2024-02-14T00:05:41;7.22;;;2.20;;
60488;SDS011;46331;49.252;8.904;2024-02-14T00:06:22;5.78;;;2.30;;
60488;SDS011;46331;49.252;8.904;2024-02-14T00:07:03;5.85;;;1.90;;
60488;SDS011;46331;49.252;8.904;2024-02-14T00:07:44;8.37;;;2.30;;
60488;SDS011;46331;49.252;8.904;2024-02-14T00:08:25;4.85;;;2.00;;
60488;SDS011;46331;49.252;8.904;2024-02-14T00:09:06;5.47;;;1.87;;
60488;SDS011;46331;49.252;8.904;2024-02-14T00:09:47;7.40;;;2.45;;
60488;SDS011;46331;49.252;8.904;2024-02-14T00:10:28;6.20;;;2.33;;
60488;SDS011;46331;49.252;8.904;2024-02-14T00:11:08;5.93;;;2.30;;
60488;SDS011;46331;49.252;8.904;2024-02-14T00:11:49;5.47;;;2.08;;
60488;SDS011;46331;49.252;8.904;2024-02-14T00:12:29;5.93;;;2.17;;
60488;SDS011;46331;49.252;8.904;2024-02-14T00:13:10;5.70;;;2.00;;
60488;SDS011;46331;49.252;8.904;2024-02-14T00:13:52;6.85;;;2.30;;
60488;SDS011;46331;49.252;8.904;2024-02-14T00:14:32;4.87;;;2.20;;
60488;SDS011;46331;49.252;8.904;2024-02-14T00:15:13;4.78;;;1.83;;
60488;SDS011;46331;49.252;8.904;2024-02-14T00:15:53;5.40;;;2.00;;
60488;SDS011;46331;49.252;8.904;2024-02-14T00:16:34;5.18;;;2.08;;
60488;SDS011;46331;49.252;8.904;2024-02-14T00:17:14;5.45;;;2.03;;
60488;SDS011;46331;49.252;8.904;2024-02-14T00:17:55;6.50;;;2.27;;
60488;SDS011;46331;49.252;8.904;2024-02-14T00:18:35;5.97;;;1.95;;
60488;SDS011;46331;49.252;8.904;2024-02-14T00:19:16;6.63;;;2.17;;
60488;SDS011;46331;49.252;8.904;2024-02-14T00:19:57;5.93;;;2.35;;
60488;SDS011;46331;49.252;8.904;2024-02-14T00:20:37;5.60;;;2.17;;
60488;SDS011;46331;49.252;8.904;2024-02-14T00:21:19;6.30;;;2.05;;
60488;SDS011;46331;49.252;8.904;2024-02-14T00:21:59;5.70;;;2.00;;
60488;SDS011;46331;49.252;8.904;2024-02-14T00:22:40;5.80;;;1.80;;
60488;SDS011;46331;49.252;8.904;2024-02-14T00:23:21;5.63;;;2.00;;
60488;SDS011;46331;49.252;8.904;2024-02-14T00:24:01;5.93;;;2.10;;
60488;SDS011;46331;49.252;8.904;2024-02-14T00:24:42;7.13;;;2.00;;
60488;SDS011;46331;49.252;8.904;2024-02-14T00:25:23;6.63;;;2.22;;
60488;SDS011;46331;49.252;8.904;2024-02-14T00:26:04;7.20;;;2.10;;
60488;SDS011;46331;49.252;8.904;2024-02-14T00:26:44;6.78;;;2.03;;
60488;SDS011;46331;49.252;8.904;2024-02-14T00:27:26;5.85;;;2.00;;
60488;SDS011;46331;49.252;8.904;2024-02-14T00:28:07;6.18;;;2.03;;
60488;SDS011;46331;49.252;8.904;2024-02-14T00:28:47;4.95;;;2.00;;
60488;SDS011;46331;49.252;8.904;2024-02-14T00:29:28;5.53;;;2.23;;
60488;SDS011;46331;49.252;8.904;2024-02-14T00:30:09;7.10;;;2.28;;
60488;SDS011;46331;49.252;8.904;2024-02-14T00:31:10;5.97;;;2.10;;
60488;SDS011;46331;49.252;8.904;2024-02-14T00:32:11;8.25;;;2.03;;
60488;SDS011;46331;49.252;8.904;2024-02-14T00:33:00;6.15;;;2.30;;
60488;SDS011;46331;49.252;8.904;2024-02-14T00:33:41;5.82;;;1.83;;
60488;SDS011;46331;49.252;8.904;2024-02-14T00:34:21;5.93;;;2.05;;
60488;SDS011;46331;49.252;8.904;2024-02-14T00:35:02;7.10;;;1.60;;
60488;SDS011;46331;49.252;8.904;2024-02-14T00:35:44;5.43;;;2.03;;
60488;SDS011;46331;49.252;8.904;2024-02-14T00:36:25;6.25;;;2.08;;
60488;SDS011;46331;49.252;8.904;2024-02-14T00:37:06;6.80;;;1.80;;
60488;SDS011;46331;49.252;8.904;2024-02-14T00:37:47;6.97;;;1.80;;
60488;SDS011;46331;49.252;8.904;2024-02-14T00:38:27;4.07;;;1.48;;
60488;SDS011;46331;49.252;8.904;2024-02-14T00:39:08;6.83;;;2.10;;
60488;SDS011;46331;49.252;8.904;2024-02-14T00:39:49;6.32;;;2.08;;
60488;SDS011;46331;49.252;8.904;2024-02-14T00:40:32;5.47;;;1.52;;
60488;SDS011;46331;49.252;8.904;2024-02-14T00:41:12;5.72;;;1.90;;
60488;SDS011;46331;49.252;8.904;2024-02-14T00:41:53;7.85;;;2.10;;
60488;SDS011;46331;49.252;8.904;2024-02-14T00:42:35;5.18;;;1.85;;
60488;SDS011;46331;49.252;8.904;2024-02-14T00:43:15;8.00;;;2.00;;
60488;SDS011;46331;49.252;8.904;2024-02-14T00:43:56;4.97;;;1.83;;
60488;SDS011;46331;49.252;8.904;2024-02-14T00:44:36;7.63;;;2.43;;
60488;SDS011;46331;49.252;8.904;2024-02-14T00:45:17;8.27;;;2.38;;
60488;SDS011;46331;49.252;8.904;2024-02-14T00:45:57;5.27;;;1.70;;
60488;SDS011;46331;49.252;8.904;2024-02-14T00:46:38;5.55;;;2.10;;
60488;SDS011;46331;49.252;8.904;2024-02-14T00:47:19;5.20;;;1.90;;
60488;SDS011;46331;49.252;8.904;2024-02-14T00:47:59;4.87;;;1.90;;
60488;SDS011;46331;49.252;8.904;2024-02-14T00:48:40;8.70;;;1.98;;
60488;SDS011;46331;49.252;8.904;2024-02-14T00:49:20;5.43;;;2.10;;
60488;SDS011;46331;49.252;8.904;2024-02-14T00:50:01;6.00;;;2.00;;
60488;SDS011;46331;49.252;8.904;2024-02-14T00:50:45;5.50;;;2.00;;
60488;SDS011;46331;49.252;8.904;2024-02-14T00:51:26;5.35;;;1.90;;
60488;SDS011;46331;49.252;8.904;2024-02-14T00:52:06;7.03;;;2.00;;
60488;SDS011;46331;49.252;8.904;2024-02-14T00:52:47;6.03;;;1.85;;
60488;SDS011;46331;49.252;8.904;2024-02-14T00:53:27;5.87;;;2.10;;
60488;SDS011;46331;49.252;8.904;2024-02-14T00:54:08;5.75;;;1.77;;
60488;SDS011;46331;49.252;8.904;2024-02-14T00:54:48;4.73;;;1.90;;
60488;SDS011;46331;49.252;8.904;2024-02-14T00:55:29;5.00;;;2.03;;
60488;SDS011;46331;49.252;8.904;2024-02-14T00:56:09;5.15;;;1.75;;
60488;SDS011;46331;49.252;8.904;2024-02-14T00:56:51;6.15;;;1.67;;
60488;SDS011;46331;49.252;8.904;2024-02-14T00:57:31;8.60;;;2.10;;
60488;SDS011;46331;49.252;8.904;2024-02-14T00:58:12;5.20;;;1.80;;
60488;SDS011;46331;49.252;8.904;2024-02-14T00:58:52;5.77;;;2.17;;
60488;SDS011;46331;49.252;8.904;2024-02-14T00:59:33;9.38;;;2.20;;
60488;SDS011;46331;49.252;8.904;2024-02-14T01:00:13;5.40;;;1.90;;
60488;SDS011;46331;49.252;8.904;2024-02-14T01:00:54;4.93;;;1.65;;
60488;SDS011;46331;49.252;8.904;2024-02-14T01:01:35;4.50;;;1.58;;
60488;SDS011;46331;49.252;8.904;2024-02-14T01:02:15;5.20;;;1.80;;
60488;SDS011;46331;49.252;8.904;2024-02-14T01:02:56;9.07;;;1.90;;
60488;SDS011;46331;49.252;8.904;2024-02-14T01:03:37;5.78;;;1.90;;
60488;SDS011;46331;49.252;8.904;2024-02-14T01:04:18;5.03;;;1.80;;
60488;SDS011;46331;49.252;8.904;2024-02-14T01:04:59;6.47;;;2.13;;
60488;SDS011;46331;49.252;8.904;2024-02-14T01:05:39;6.15;;;2.10;;
60488;SDS011;46331;49.252;8.904;2024-02-14T01:06:20;5.33;;;1.80;;
60488;SDS011;46331;49.252;8.904;2024-02-14T01:07:00;7.28;;;1.90;;
60488;SDS011;46331;49.252;8.904;2024-02-14T01:07:41;5.60;;;1.80;;
60488;SDS011;46331;49.252;8.904;2024-02-14T01:08:21;7.27;;;1.70;;
60488;SDS011;46331;49.252;8.904;2024-02-14T01:09:02;6.80;;;2.00;;
60488;SDS011;46331;49.252;8.904;2024-02-14T01:09:43;5.38;;;1.75;;
60488;SDS011;46331;49.252;8.904;2024-02-14T01:10:24;7.00;;;2.03;;
60488;SDS011;46331;49.252;8.904;2024-02-14T01:11:04;5.20;;;1.90;;
60488;SDS011;46331;49.252;8.904;2024-02-14T01:11:45;4.88;;;1.90;;
60488;SDS011;46331;49.252;8.904;2024-02-14T01:12:26;6.90;;;1.90;;
60488;SDS011;46331;49.252;8.904;2024-02-14T01:13:06;5.95;;;2.10;;
60488;SDS011;46331;49.252;8.904;2024-02-14T01:13:47;5.70;;;1.83;;
60488;SDS011;46331;49.252;8.904;2024-02-14T01:14:27;4.93;;;1.77;;
60488;SDS011;46331;49.252;8.904;2024-02-14T01:15:08;4.63;;;1.80;;
60488;SDS011;46331;49.252;8.904;2024-02-14T01:15:49;7.03;;;2.30;;
60488;SDS011;46331;49.252;8.904;2024-02-14T01:16:30;5.15;;;2.10;;
60488;SDS011;46331;49.252;8.904;2024-02-14T01:17:10;4.73;;;1.90;;
60488;SDS011;46331;49.252;8.904;2024-02-14T01:17:51;5.53;;;1.95;;
60488;SDS011;46331;49.252;8.904;2024-02-14T01:18:31;4.73;;;1.90;;
60488;SDS011;46331;49.252;8.904;2024-02-14T01:19:12;4.77;;;1.77;;
60488;SDS011;46331;49.252;8.904;2024-02-14T01:19:54;6.03;;;1.70;;
60488;SDS011;46331;49.252;8.904;2024-02-14T01:20:34;5.00;;;1.70;;
60488;SDS011;46331;49.252;8.904;2024-02-14T01:21:15;6.47;;;2.17;;
60488;SDS011;46331;49.252;8.904;2024-02-14T01:21:56;5.57;;;1.90;;
60488;SDS011;46331;49.252;8.904;2024-02-14T01:22:37;4.95;;;1.80;;
60488;SDS011;46331;49.252;8.904;2024-02-14T01:23:25;5.60;;;1.70;;
60488;SDS011;46331;49.252;8.904;2024-02-14T01:24:05;5.50;;;1.98;;
60488;SDS011;46331;49.252;8.904;2024-02-14T01:24:48;7.50;;;2.22;;
60488;SDS011;46331;49.252;8.904;2024-02-14T01:25:28;6.43;;;2.10;;
60488;SDS011;46331;49.252;8.904;2024-02-14T01:26:09;6.43;;;2.00;;
60488;SDS011;46331;49.252;8.904;2024-02-14T01:26:49;7.18;;;2.30;;
60488;SDS011;46331;49.252;8.904;2024-02-14T01:27:31;5.68;;;2.10;;
60488;SDS011;46331;49.252;8.904;2024-02-14T01:28:11;7.17;;;2.10;;
60488;SDS011;46331;49.252;8.904;2024-02-14T01:28:51;5.88;;;2.03;;
60488;SDS011;46331;49.252;8.904;2024-02-14T01:29:32;6.43;;;1.88;;
60488;SDS011;46331;49.252;8.904;2024-02-14T01:30:13;8.73;;;2.03;;
60488;SDS011;46331;49.252;8.904;2024-02-14T01:30:53;7.00;;;2.10;;
60488;SDS011;46331;49.252;8.904;2024-02-14T01:31:34;5.47;;;2.00;;
60488;SDS011;46331;49.252;8.904;2024-02-14T01:32:15;5.07;;;2.00;;
60488;SDS011;46331;49.252;8.904;2024-02-14T01:32:55;6.13;;;2.10;;
60488;SDS011;46331;49.252;8.904;2024-02-14T01:33:36;4.83;;;1.67;;
60488;SDS011;46331;49.252;8.904;2024-02-14T01:34:16;5.43;;;2.00;;
60488;SDS011;46331;49.252;8.904;2024-02-14T01:34:57;5.60;;;2.00;;
60488;SDS011;46331;49.252;8.904;2024-02-14T01:35:37;5.50;;;2.00;;
60488;SDS011;46331;49.252;8.904;2024-02-14T01:36:18;4.82;;;1.73;;
60488;SDS011;46331;49.252;8.904;2024-02-14T01:36:58;6.00;;;1.97;;
60488;SDS011;46331;49.252;8.904;2024-02-14T01:37:39;5.83;;;1.90;;
60488;SDS011;46331;49.252;8.904;2024-02-14T01:38:19;6.55;;;2.28;;
60488;SDS011;46331;49.252;8.904;2024-02-14T01:39:00;6.00;;;2.10;;
60488;SDS011;46331;49.252;8.904;2024-02-14T01:39:40;5.45;;;1.77;;
60488;SDS011;46331;49.252;8.904;2024-02-14T01:40:21;5.33;;;2.00;;
60488;SDS011;46331;49.252;8.904;2024-02-14T01:41:09;5.10;;;1.90;;
60488;SDS011;46331;49.252;8.904;2024-02-14T01:41:50;5.27;;;1.73;;
60488;SDS011;46331;49.252;8.904;2024-02-14T01:42:30;6.40;;;2.10;;
60488;SDS011;46331;49.252;8.904;2024-02-14T01:43:11;6.63;;;2.27;;
60488;SDS011;46331;49.252;8.904;2024-02-14T01:43:54;4.63;;;1.67;;
60488;SDS011;46331;49.252;8.904;2024-02-14T01:44:34;5.28;;;2.08;;
60488;SDS011;46331;49.252;8.904;2024-02-14T01:45:17;5.60;;;1.73;;
60488;SDS011;46331;49.252;8.904;2024-02-14T01:46:06;5.38;;;2.00;;
60488;SDS011;46331;49.252;8.904;2024-02-14T01:46:50;6.87;;;1.90;;
60488;SDS011;46331;49.252;8.904;2024-02-14T01:47:33;4.65;;;2.08;;
60488;SDS011;46331;49.252;8.904;2024-02-14T01:48:14;5.13;;;1.90;;
60488;SDS011;46331;49.252;8.904;2024-02-14T01:48:58;7.80;;;2.50;;
60488;SDS011;46331;49.252;8.904;2024-02-14T01:49:39;5.72;;;2.10;;
60488;SDS011;46331;49.252;8.904;2024-02-14T01:50:24;5.53;;;2.00;;
60488;SDS011;46331;49.252;8.904;2024-02-14T01:51:11;6.50;;;1.80;;
60488;SDS011;46331;49.252;8.904;2024-02-14T01:51:53;5.75;;;2.45;;
60488;SDS011;46331;49.252;8.904;2024-02-14T01:52:38;6.45;;;2.40;;
60488;SDS011;46331;49.252;8.904;2024-02-14T01:53:21;6.93;;;2.50;;
60488;SDS011;46331;49.252;8.904;2024-02-14T01:54:02;4.63;;;1.83;;
60488;SDS011;46331;49.252;8.904;2024-02-14T01:54:43;8.15;;;2.55;;
60488;SDS011;46331;49.252;8.904;2024-02-14T01:55:25;7.32;;;2.40;;
60488;SDS011;46331;49.252;8.904;2024-02-14T01:56:09;6.13;;;2.25;;
60488;SDS011;46331;49.252;8.904;2024-02-14T01:56:49;5.60;;;2.10;;
60488;SDS011;46331;49.252;8.904;2024-02-14T01:57:30;5.70;;;2.22;;
60488;SDS011;46331;49.252;8.904;2024-02-14T01:58:11;6.45;;;2.00;;
60488;SDS011;46331;49.252;8.904;2024-02-14T01:58:52;5.07;;;1.88;;
60488;SDS011;46331;49.252;8.904;2024-02-14T01:59:33;5.55;;;1.95;;
60488;SDS011;46331;49.252;8.904;2024-02-14T02:00:17;6.75;;;2.40;;
60488;SDS011;46331;49.252;8.904;2024-02-14T02:00:58;5.80;;;2.08;;
60488;SDS011;46331;49.252;8.904;2024-02-14T02:01:39;5.60;;;2.00;;
60488;SDS011;46331;49.252;8.904;2024-02-14T02:02:19;6.93;;;2.28;;
60488;SDS011;46331;49.252;8.904;2024-02-14T02:03:00;7.43;;;2.22;;
60488;SDS011;46331;49.252;8.904;2024-02-14T02:03:41;5.80;;;2.10;;
60488;SDS011;46331;49.252;8.904;2024-02-14T02:04:22;6.93;;;2.10;;
60488;SDS011;46331;49.252;8.904;2024-02-14T02:05:02;6.33;;;1.80;;
60488;SDS011;46331;49.252;8.904;2024-02-14T02:05:44;5.97;;;2.00;;
60488;SDS011;46331;49.252;8.904;2024-02-14T02:06:25;6.38;;;1.90;;
60488;SDS011;46331;49.252;8.904;2024-02-14T02:07:06;4.82;;;1.90;;
60488;SDS011;46331;49.252;8.904;2024-02-14T02:07:47;5.03;;;2.25;;
60488;SDS011;46331;49.252;8.904;2024-02-14T02:08:28;6.35;;;2.00;;
60488;SDS011;46331;49.252;8.904;2024-02-14T02:09:09;6.68;;;2.17;;
60488;SDS011;46331;49.252;8.904;2024-02-14T02:09:50;6.43;;;2.20;;
60488;SDS011;46331;49.252;8.904;2024-02-14T02:10:30;8.87;;;1.90;;
60488;SDS011;46331;49.252;8.904;2024-02-14T02:11:31;5.32;;;1.90;;
60488;SDS011;46331;49.252;8.904;2024-02-14T02:12:42;4.50;;;1.80;;
60488;SDS011;46331;49.252;8.904;2024-02-14T02:13:44;6.03;;;1.95;;
60488;SDS011;46331;49.252;8.904;2024-02-14T02:14:44;6.38;;;1.98;;
60488;SDS011;46331;49.252;8.904;2024-02-14T02:15:45;6.43;;;2.10;;
60488;SDS011;46331;49.252;8.904;2024-02-14T02:16:45;4.27;;;1.60;;
60488;SDS011;46331;49.252;8.904;2024-02-14T02:17:46;6.75;;;2.13;;
60488;SDS011;46331;49.252;8.904;2024-02-14T02:18:52;6.32;;;1.90;;
60488;SDS011;46331;49.252;8.904;2024-02-14T02:19:54;5.53;;;2.20;;
60488;SDS011;46331;49.252;8.904;2024-02-14T02:20:48;6.38;;;2.10;;
60488;SDS011;46331;49.252;8.904;2024-02-14T02:21:29;6.27;;;1.93;;
60488;SDS011;46331;49.252;8.904;2024-02-14T02:22:10;5.10;;;1.80;;
60488;SDS011;46331;49.252;8.904;2024-02-14T02:22:59;6.20;;;2.33;;
60488;SDS011;46331;49.252;8.904;2024-02-14T02:23:58;7.50;;;2.28;;
60488;SDS011;46331;49.252;8.904;2024-02-14T02:24:39;5.87;;;1.80;;
60488;SDS011;46331;49.252;8.904;2024-02-14T02:25:19;4.88;;;1.50;;
60488;SDS011;46331;49.252;8.904;2024-02-14T02:26:25;5.50;;;1.80;;
60488;SDS011;46331;49.252;8.904;2024-02-14T02:27:21;6.03;;;1.90;;
60488;SDS011;46331;49.252;8.904;2024-02-14T02:28:21;6.93;;;2.23;;
60488;SDS011;46331;49.252;8.904;2024-02-14T02:29:05;9.23;;;2.33;;
60488;SDS011;46331;49.252;8.904;2024-02-14T02:29:46;5.32;;;1.73;;
60488;SDS011;46331;49.252;8.904;2024-02-14T02:30:27;7.50;;;1.88;;
60488;SDS011;46331;49.252;8.904;2024-02-14T02:31:08;5.43;;;1.90;;
60488;SDS011;46331;49.252;8.904;2024-02-14T02:31:50;6.93;;;2.00;;
60488;SDS011;46331;49.252;8.904;2024-02-14T02:32:32;6.40;;;2.10;;
60488;SDS011;46331;49.252;8.904;2024-02-14T02:33:12;5.85;;;2.10;;
60488;SDS011;46331;49.252;8.904;2024-02-14T02:33:53;5.43;;;2.00;;
60488;SDS011;46331;49.252;8.904;2024-02-14T02:34:34;6.43;;;2.17;;
60488;SDS011;46331;49.252;8.904;2024-02-14T02:35:14;6.33;;;2.57;;
60488;SDS011;46331;49.252;8.904;2024-02-14T02:36:15;6.93;;;2.75;;
60488;SDS011;46331;49.252;8.904;2024-02-14T02:37:16;5.90;;;2.00;;
60488;SDS011;46331;49.252;8.904;2024-02-14T02:38:18;8.85;;;2.20;;
60488;SDS011;46331;49.252;8.904;2024-02-14T02:39:20;5.93;;;2.05;;
60488;SDS011;46331;49.252;8.904;2024-02-14T02:40:20;5.22;;;1.90;;
60488;SDS011;46331;49.252;8.904;2024-02-14T02:41:24;6.38;;;1.90;;
60488;SDS011;46331;49.252;8.904;2024-02-14T02:42:24;7.78;;;2.03;;
60488;SDS011;46331;49.252;8.904;2024-02-14T02:43:22;6.43;;;2.03;;
60488;SDS011;46331;49.252;8.904;2024-02-14T02:44:22;7.20;;;2.28;;
60488;SDS011;46331;49.252;8.904;2024-02-14T02:45:21;7.18;;;2.05;;
60488;SDS011;46331;49.252;8.904;2024-02-14T02:46:22;5.60;;;2.00;;
60488;SDS011;46331;49.252;8.904;2024-02-14T02:47:23;6.53;;;1.90;;
60488;SDS011;46331;49.252;8.904;2024-02-14T02:48:23;5.35;;;1.60;;
60488;SDS011;46331;49.252;8.904;2024-02-14T02:49:11;5.78;;;1.75;;
60488;SDS011;46331;49.252;8.904;2024-02-14T02:49:54;6.43;;;1.67;;
60488;SDS011;46331;49.252;8.904;2024-02-14T02:50:42;5.78;;;1.88;;
60488;SDS011;46331;49.252;8.904;2024-02-14T02:51:43;4.88;;;1.70;;
60488;SDS011;46331;49.252;8.904;2024-02-14T02:52:44;5.57;;;1.70;;
60488;SDS011;46331;49.252;8.904;2024-02-14T02:53:31;5.03;;;1.90;;
60488;SDS011;46331;49.252;8.904;2024-02-14T02:54:31;5.75;;;1.80;;
60488;SDS011;46331;49.252;8.904;2024-02-14T02:55:32;6.05;;;1.88;;
60488;SDS011;46331;49.252;8.904;2024-02-14T02:56:15;4.95;;;1.70;;
60488;SDS011;46331;49.252;8.904;2024-02-14T02:56:56;4.80;;;1.75;;
60488;SDS011;46331;49.252;8.904;2024-02-14T02:57:36;5.20;;;1.77;;
60488;SDS011;46331;49.252;8.904;2024-02-14T02:58:18;5.90;;;2.13;;
60488;SDS011;46331;49.252;8.904;2024-02-14T02:59:01;5.60;;;1.88;;
60488;SDS011;46331;49.252;8.904;2024-02-14T02:59:43;8.13;;;1.77;;
60488;SDS011;46331;49.252;8.904;2024-02-14T03:00:25;5.25;;;1.65;;
60488;SDS011;46331;49.252;8.904;2024-02-14T03:01:19;5.50;;;1.95;;
60488;SDS011;46331;49.252;8.904;2024-02-14T03:02:19;5.40;;;1.58;;
60488;SDS011;46331;49.252;8.904;2024-02-14T03:03:20;6.55;;;2.35;;
60488;SDS011;46331;49.252;8.904;2024-02-14T03:04:18;7.97;;;2.50;;
60488;SDS011;46331;49.252;8.904;2024-02-14T03:05:19;8.95;;;3.08;;
60488;SDS011;46331;49.252;8.904;2024-02-14T03:06:23;9.52;;;3.55;;
60488;SDS011;46331;49.252;8.904;2024-02-14T03:07:19;12.63;;;3.20;;
60488;SDS011;46331;49.252;8.904;2024-02-14T03:08:20;7.07;;;2.90;;
60488;SDS011;46331;49.252;8.904;2024-02-14T03:09:21;9.43;;;2.40;;
60488;SDS011;46331;49.252;8.904;2024-02-14T03:10:22;6.57;;;2.28;;
60488;SDS011;46331;49.252;8.904;2024-02-14T03:11:23;6.28;;;2.10;;
60488;SDS011;46331;49.252;8.904;2024-02-14T03:12:23;5.80;;;2.22;;
60488;SDS011;46331;49.252;8.904;2024-02-14T03:13:24;5.53;;;1.70;;
60488;SDS011;46331;49.252;8.904;2024-02-14T03:14:24;7.75;;;2.05;;
60488;SDS011;46331;49.252;8.904;2024-02-14T03:15:25;6.63;;;2.00;;
60488;SDS011;46331;49.252;8.904;2024-02-14T03:16:06;8.07;;;1.90;;
60488;SDS011;46331;49.252;8.904;2024-02-14T03:16:47;6.30;;;2.20;;
60488;SDS011;46331;49.252;8.904;2024-02-14T03:17:27;6.13;;;1.90;;
60488;SDS011;46331;49.252;8.904;2024-02-14T03:18:09;5.28;;;1.80;;
60488;SDS011;46331;49.252;8.904;2024-02-14T03:18:50;6.82;;;1.75;;
60488;SDS011;46331;49.252;8.904;2024-02-14T03:19:30;5.40;;;1.97;;
60488;SDS011;46331;49.252;8.904;2024-02-14T03:20:14;5.07;;;2.17;;
60488;SDS011;46331;49.252;8.904;2024-02-14T03:20:54;6.50;;;1.80;;
60488;SDS011;46331;49.252;8.904;2024-02-14T03:21:34;5.43;;;1.80;;
60488;SDS011;46331;49.252;8.904;2024-02-14T03:22:16;5.35;;;1.70;;
60488;SDS011;46331;49.252;8.904;2024-02-14T03:22:58;7.00;;;1.80;;
60488;SDS011;46331;49.252;8.904;2024-02-14T03:23:39;5.73;;;1.87;;
60488;SDS011;46331;49.252;8.904;2024-02-14T03:24:20;6.88;;;1.88;;
60488;SDS011;46331;49.252;8.904;2024-02-14T03:25:00;6.87;;;2.00;;
60488;SDS011;46331;49.252;8.904;2024-02-14T03:25:41;4.80;;;1.67;;
60488;SDS011;46331;49.252;8.904;2024-02-14T03:26:22;5.60;;;1.80;;
60488;SDS011;46331;49.252;8.904;2024-02-14T03:27:03;5.57;;;1.80;;
60488;SDS011;46331;49.252;8.904;2024-02-14T03:27:45;5.75;;;1.85;;
60488;SDS011;46331;49.252;8.904;2024-02-14T03:28:27;5.10;;;1.70;;
60488;SDS011;46331;49.252;8.904;2024-02-14T03:29:08;5.03;;;1.80;;
60488;SDS011;46331;49.252;8.904;2024-02-14T03:29:48;5.80;;;1.63;;
60488;SDS011;46331;49.252;8.904;2024-02-14T03:30:31;8.00;;;2.05;;
60488;SDS011;46331;49.252;8.904;2024-02-14T03:31:14;5.82;;;1.90;;
60488;SDS011;46331;49.252;8.904;2024-02-14T03:31:55;5.78;;;1.90;;
60488;SDS011;46331;49.252;8.904;2024-02-14T03:32:38;7.75;;;1.90;;
60488;SDS011;46331;49.252;8.904;2024-02-14T03:33:19;6.17;;;1.57;;
60488;SDS011;46331;49.252;8.904;2024-02-14T03:34:00;6.55;;;1.80;;
60488;SDS011;46331;49.252;8.904;2024-02-14T03:34:40;5.13;;;1.83;;
60488;SDS011;46331;49.252;8.904;2024-02-14T03:35:21;5.03;;;1.70;;
60488;SDS011;46331;49.252;8.904;2024-02-14T03:36:02;5.35;;;1.67;;
60488;SDS011;46331;49.252;8.904;2024-02-14T03:36:43;5.65;;;1.85;;
60488;SDS011;46331;49.252;8.904;2024-02-14T03:37:23;7.00;;;2.10;;
60488;SDS011;46331;49.252;8.904;2024-02-14T03:38:04;5.00;;;1.80;;
60488;SDS011;46331;49.252;8.904;2024-02-14T03:38:44;6.03;;;1.70;;
60488;SDS011;46331;49.252;8.904;2024-02-14T03:39:26;6.28;;;1.77;;
60488;SDS011;46331;49.252;8.904;2024-02-14T03:40:07;5.25;;;1.90;;
60488;SDS011;46331;49.252;8.904;2024-02-14T03:40:48;5.90;;;1.83;;
60488;SDS011;46331;49.252;8.904;2024-02-14T03:41:28;8.43;;;1.90;;
60488;SDS011;46331;49.252;8.904;2024-02-14T03:42:09;7.05;;;1.85;;
60488;SDS011;46331;49.252;8.904;2024-02-14T03:42:49;5.57;;;2.00;;
60488;SDS011;46331;49.252;8.904;2024-02-14T03:43:30;5.30;;;1.60;;
60488;SDS011;46331;49.252;8.904;2024-02-14T03:44:12;6.32;;;1.85;;
60488;SDS011;46331;49.252;8.904;2024-02-14T03:44:53;6.07;;;2.22;;
60488;SDS011;46331;49.252;8.904;2024-02-14T03:45:40;7.90;;;2.40;;
60488;SDS011;46331;49.252;8.904;2024-02-14T03:46:21;7.43;;;2.40;;
60488;SDS011;46331;49.252;8.904;2024-02-14T03:47:02;8.10;;;2.93;;
60488;SDS011;46331;49.252;8.904;2024-02-14T03:47:42;8.45;;;2.67;;
60488;SDS011;46331;49.252;8.904;2024-02-14T03:48:23;10.60;;;3.60;;
60488;SDS011;46331;49.252;8.904;2024-02-14T03:49:03;10.88;;;4.43;;
60488;SDS011;46331;49.252;8.904;2024-02-14T03:49:44;13.20;;;5.90;;
60488;SDS011;46331;49.252;8.904;2024-02-14T03:50:24;11.60;;;5.40;;
60488;SDS011;46331;49.252;8.904;2024-02-14T03:51:05;15.10;;;5.87;;
60488;SDS011;46331;49.252;8.904;2024-02-14T03:51:46;17.60;;;7.72;;
60488;SDS011;46331;49.252;8.904;2024-02-14T03:52:27;17.83;;;8.97;;
60488;SDS011;46331;49.252;8.904;2024-02-14T03:53:07;18.08;;;8.95;;
60488;SDS011;46331;49.252;8.904;2024-02-14T03:53:48;16.70;;;9.57;;
60488;SDS011;46331;49.252;8.904;2024-02-14T03:54:28;18.75;;;9.75;;
60488;SDS011;46331;49.252;8.904;2024-02-14T03:55:09;15.67;;;9.23;;
60488;SDS011;46331;49.252;8.904;2024-02-14T03:55:53;17.88;;;8.70;;
60488;SDS011;46331;49.252;8.904;2024-02-14T03:56:34;16.47;;;8.37;;
60488;SDS011;46331;49.252;8.904;2024-02-14T03:57:14;15.88;;;7.72;;
60488;SDS011;46331;49.252;8.904;2024-02-14T03:57:55;11.63;;;6.83;;
60488;SDS011;46331;49.252;8.904;2024-02-14T03:58:35;11.48;;;6.20;;
60488;SDS011;46331;49.252;8.904;2024-02-14T03:59:17;10.93;;;6.00;;
60488;SDS011;46331;49.252;8.904;2024-02-14T04:00:04;10.73;;;5.80;;
60488;SDS011;46331;49.252;8.904;2024-02-14T04:00:52;10.30;;;5.72;;
60488;SDS011;46331;49.252;8.904;2024-02-14T04:01:33;10.20;;;4.85;;
60488;SDS011;46331;49.252;8.904;2024-02-14T04:02:14;10.35;;;4.65;;
60488;SDS011;46331;49.252;8.904;2024-02-14T04:02:55;10.30;;;4.00;;
60488;SDS011;46331;49.252;8.904;2024-02-14T04:03:39;9.32;;;3.70;;
60488;SDS011;46331;49.252;8.904;2024-02-14T04:04:19;7.30;;;3.27;;
60488;SDS011;46331;49.252;8.904;2024-02-14T04:05:00;7.95;;;3.47;;
60488;SDS011;46331;49.252;8.904;2024-02-14T04:05:42;7.38;;;3.10;;
60488;SDS011;46331;49.252;8.904;2024-02-14T04:06:22;6.63;;;2.87;;
60488;SDS011;46331;49.252;8.904;2024-02-14T04:07:07;7.32;;;2.75;;
60488;SDS011;46331;49.252;8.904;2024-02-14T04:07:50;5.47;;;2.28;;
60488;SDS011;46331;49.252;8.904;2024-02-14T04:08:32;6.15;;;2.42;;
60488;SDS011;46331;49.252;8.904;2024-02-14T04:09:13;7.68;;;2.17;;
60488;SDS011;46331;49.252;8.904;2024-02-14T04:09:53;5.67;;;2.10;;
60488;SDS011;46331;49.252;8.904;2024-02-14T04:10:34;5.13;;;2.17;;
60488;SDS011;46331;49.252;8.904;2024-02-14T04:11:14;4.97;;;2.10;;
60488;SDS011;46331;49.252;8.904;2024-02-14T04:11:55;6.50;;;2.33;;
60488;SDS011;46331;49.252;8.904;2024-02-14T04:12:35;6.33;;;2.50;;
60488;SDS011;46331;49.252;8.904;2024-02-14T04:13:16;5.97;;;2.27;;
60488;SDS011;46331;49.252;8.904;2024-02-14T04:13:57;6.25;;;2.20;;
60488;SDS011;46331;49.252;8.904;2024-02-14T04:14:37;6.03;;;2.30;;
60488;SDS011;46331;49.252;8.904;2024-02-14T04:15:18;6.53;;;2.58;;
60488;SDS011;46331;49.252;8.904;2024-02-14T04:16:04;7.30;;;2.42;;
60488;SDS011;46331;49.252;8.904;2024-02-14T04:16:52;7.80;;;2.85;;
60488;SDS011;46331;49.252;8.904;2024-02-14T04:17:32;7.37;;;2.53;;
60488;SDS011;46331;49.252;8.904;2024-02-14T04:18:13;6.33;;;2.87;;
60488;SDS011;46331;49.252;8.904;2024-02-14T04:18:56;5.85;;;2.70;;
60488;SDS011;46331;49.252;8.904;2024-02-14T04:19:36;10.80;;;3.95;;
60488;SDS011;46331;49.252;8.904;2024-02-14T04:20:17;7.13;;;3.53;;
60488;SDS011;46331;49.252;8.904;2024-02-14T04:20:57;9.07;;;3.80;;
60488;SDS011;46331;49.252;8.904;2024-02-14T04:21:38;6.83;;;3.00;;
60488;SDS011;46331;49.252;8.904;2024-02-14T04:22:19;6.72;;;3.30;;
60488;SDS011;46331;49.252;8.904;2024-02-14T04:23:00;9.88;;;3.95;;
60488;SDS011;46331;49.252;8.904;2024-02-14T04:23:41;9.70;;;3.60;;